createdAt,value
2023-04-11T00:01:13.959Z,10.34
2023-04-11T00:03:41.699Z,10.35
2023-04-11T00:06:09.322Z,10.28
2023-04-11T00:08:36.817Z,10.32
2023-04-11T00:11:04.177Z,10.24
2023-04-11T00:13:31.592Z,10.32
2023-04-11T00:15:59.389Z,10.25
2023-04-11T00:18:27.139Z,10.25
2023-04-11T00:20:54.590Z,10.17
2023-04-11T00:23:22.135Z,10.25
2023-04-11T00:25:49.624Z,10.14
2023-04-11T00:28:17.121Z,10.21
2023-04-11T00:30:44.590Z,10.12
2023-04-11T00:33:12.109Z,10.06
2023-04-11T00:35:41.120Z,10.02
2023-04-11T00:38:08.714Z,10.00
2023-04-11T00:40:36.314Z,10.02
2023-04-11T00:43:04.116Z,9.91
2023-04-11T00:45:31.673Z,9.96
2023-04-11T00:47:59.615Z,9.85
2023-04-11T00:50:27.251Z,9.82
2023-04-11T00:52:57.045Z,9.76
2023-04-11T00:55:24.965Z,9.73
2023-04-11T00:57:54.993Z,9.70
2023-04-11T01:00:23.390Z,9.76
2023-04-11T01:02:51.051Z,9.73
2023-04-11T01:05:19.214Z,9.74
2023-04-11T01:07:50.701Z,9.65
2023-04-11T01:10:19.368Z,9.71
2023-04-11T01:12:47.258Z,9.77
2023-04-11T01:15:15.395Z,9.80
2023-04-11T01:17:43.370Z,9.79
2023-04-11T01:20:13.100Z,9.79
2023-04-11T01:22:43.023Z,9.72
2023-04-11T01:25:11.298Z,9.88
2023-04-11T01:27:38.790Z,9.85
2023-04-11T01:30:07.090Z,9.87
2023-04-11T01:32:35.392Z,9.87
2023-04-11T01:35:05.740Z,9.77
2023-04-11T01:37:33.580Z,9.71
2023-04-11T01:40:01.747Z,9.66
2023-04-11T01:42:30.832Z,9.65
2023-04-11T01:44:59.557Z,9.65
2023-04-11T01:47:27.715Z,9.66
2023-04-11T01:49:56.043Z,9.67
2023-04-11T01:52:24.945Z,9.68
2023-04-11T01:54:52.423Z,9.70
2023-04-11T01:57:19.671Z,9.66
2023-04-11T01:59:47.449Z,9.64
2023-04-11T02:02:15.958Z,9.63
2023-04-11T02:04:43.692Z,9.69
2023-04-11T02:07:12.311Z,9.62
2023-04-11T02:09:39.858Z,9.56
2023-04-11T02:12:07.214Z,9.54
2023-04-11T02:14:43.105Z,9.50
2023-04-11T02:17:11.155Z,9.49
2023-04-11T02:19:45.416Z,9.47
2023-04-11T02:22:14.168Z,9.44
2023-04-11T02:24:42.277Z,9.28
2023-04-11T02:27:11.130Z,9.24
2023-04-11T02:29:38.716Z,9.21
2023-04-11T02:32:06.397Z,9.23
2023-04-11T02:34:33.922Z,9.15
2023-04-11T02:37:03.242Z,9.17
2023-04-11T02:39:30.672Z,9.16
2023-04-11T02:41:58.221Z,9.21
2023-04-11T02:44:26.441Z,9.21
2023-04-11T02:46:56.172Z,9.14
2023-04-11T02:49:25.098Z,9.10
2023-04-11T02:51:53.434Z,9.03
2023-04-11T02:54:21.168Z,9.09
2023-04-11T02:56:48.781Z,9.11
2023-04-11T02:59:16.118Z,9.08
2023-04-11T03:01:45.601Z,9.09
2023-04-11T03:04:13.199Z,9.19
2023-04-11T03:06:52.240Z,9.18
2023-04-11T03:09:20.582Z,9.15
2023-04-11T03:11:48.458Z,9.15
2023-04-11T03:14:16.677Z,9.21
2023-04-11T03:16:44.003Z,9.21
2023-04-11T03:19:12.500Z,9.22
2023-04-11T03:21:39.936Z,9.24
2023-04-11T03:24:07.942Z,9.30
2023-04-11T03:26:35.591Z,9.41
2023-04-11T03:29:09.874Z,9.42
2023-04-11T03:31:48.182Z,9.45
2023-04-11T03:34:16.165Z,9.41
2023-04-11T03:36:44.004Z,9.41
2023-04-11T03:39:12.169Z,9.38
2023-04-11T03:41:39.914Z,9.47
2023-04-11T03:44:09.874Z,9.41
2023-04-11T03:46:38.178Z,9.40
2023-04-11T03:49:06.196Z,9.50
2023-04-11T03:51:34.251Z,9.47
2023-04-11T03:54:04.945Z,9.38
2023-04-11T03:56:36.968Z,9.36
2023-04-11T03:59:05.520Z,9.50
2023-04-11T04:01:46.639Z,9.47
2023-04-11T04:04:15.352Z,9.33
2023-04-11T04:06:46.755Z,9.27
2023-04-11T04:09:14.318Z,9.28
2023-04-11T04:11:59.621Z,9.22
2023-04-11T04:14:39.888Z,9.17
2023-04-11T04:17:08.352Z,9.11
2023-04-11T04:19:35.764Z,9.18
2023-04-11T04:22:03.944Z,9.16
2023-04-11T04:24:39.493Z,9.18
2023-04-11T04:27:18.380Z,9.17
2023-04-11T04:29:48.315Z,9.19
2023-04-11T04:32:25.141Z,9.18
2023-04-11T04:34:59.030Z,9.31
2023-04-11T04:37:30.533Z,9.30
2023-04-11T04:40:12.214Z,9.45
2023-04-11T04:42:58.250Z,9.59
2023-04-11T04:45:36.291Z,9.43
2023-04-11T04:48:04.366Z,9.24
2023-04-11T04:50:32.598Z,9.30
2023-04-11T04:53:00.117Z,9.34
2023-04-11T04:55:28.944Z,9.28
2023-04-11T04:57:56.849Z,9.16
2023-04-11T05:00:24.601Z,9.15
2023-04-11T05:02:57.060Z,9.19
2023-04-11T05:05:29.300Z,9.21
2023-04-11T05:07:56.875Z,9.15
2023-04-11T05:10:24.571Z,9.29
2023-04-11T05:12:53.654Z,9.32
2023-04-11T05:15:23.471Z,9.30
2023-04-11T05:17:51.008Z,9.33
2023-04-11T05:20:19.688Z,9.30
2023-04-11T05:22:50.404Z,9.21
2023-04-11T05:25:18.919Z,9.24
2023-04-11T05:27:46.956Z,9.14
2023-04-11T05:30:14.919Z,9.14
2023-04-11T05:32:43.150Z,9.12
2023-04-11T05:35:11.140Z,9.11
2023-04-11T05:37:56.523Z,9.11
2023-04-11T05:40:23.981Z,9.10
2023-04-11T05:42:51.204Z,9.14
2023-04-11T05:45:19.580Z,9.14
2023-04-11T05:47:47.035Z,9.16
2023-04-11T05:50:15.321Z,9.24
2023-04-11T05:52:42.775Z,9.33
2023-04-11T05:55:11.238Z,9.44
2023-04-11T05:57:38.611Z,9.59
2023-04-11T06:00:12.686Z,9.73
2023-04-11T06:02:42.122Z,9.98
2023-04-11T06:05:12.020Z,10.47
2023-04-11T06:07:40.194Z,11.30
2023-04-11T06:10:09.035Z,11.93
2023-04-11T06:12:36.897Z,12.52
2023-04-11T06:15:05.126Z,12.96
2023-04-11T06:17:32.828Z,13.36
2023-04-11T06:20:00.314Z,13.97
2023-04-11T06:22:27.919Z,14.42
2023-04-11T06:24:55.333Z,14.76
2023-04-11T06:27:22.981Z,15.10
2023-04-11T06:29:50.599Z,15.49
2023-04-11T06:32:18.334Z,15.58
2023-04-11T06:34:45.793Z,15.43
2023-04-11T06:37:13.280Z,15.02
2023-04-11T06:39:40.983Z,14.57
2023-04-11T06:42:08.549Z,14.18
2023-04-11T06:44:36.121Z,13.72
2023-04-11T06:47:03.836Z,13.26
2023-04-11T06:49:31.491Z,12.86
2023-04-11T06:52:00.684Z,12.53
2023-04-11T06:54:28.181Z,12.30
2023-04-11T06:56:57.314Z,12.24
2023-04-11T06:59:24.929Z,12.32
2023-04-11T07:01:52.480Z,12.57
2023-04-11T07:04:20.106Z,12.88
2023-04-11T07:06:48.102Z,13.03
2023-04-11T07:09:15.646Z,12.92
2023-04-11T07:11:43.305Z,12.79
2023-04-11T07:14:10.826Z,12.65
2023-04-11T07:16:39.073Z,12.57
2023-04-11T07:19:06.977Z,12.59
2023-04-11T07:21:34.915Z,12.66
2023-04-11T07:24:02.471Z,12.71
2023-04-11T07:26:32.777Z,12.98
2023-04-11T07:29:01.063Z,12.93
2023-04-11T07:31:28.495Z,12.87
2023-04-11T07:33:56.407Z,12.63
2023-04-11T07:36:24.005Z,12.57
2023-04-11T07:38:52.407Z,12.57
2023-04-11T07:41:19.810Z,12.60
2023-04-11T07:43:47.254Z,12.74
2023-04-11T07:46:15.325Z,12.92
2023-04-11T07:48:43.356Z,13.08
2023-04-11T07:51:11.108Z,13.23
2023-04-11T07:53:38.653Z,13.25
2023-04-11T07:56:06.483Z,13.49
2023-04-11T07:58:33.926Z,13.73
2023-04-11T08:01:02.731Z,14.19
2023-04-11T08:03:30.789Z,14.72
2023-04-11T08:05:58.425Z,15.26
2023-04-11T08:08:26.564Z,15.90
2023-04-11T08:10:53.972Z,16.19
2023-04-11T08:13:21.503Z,16.39
2023-04-11T08:15:49.369Z,16.43
2023-04-11T08:18:21.535Z,16.18
2023-04-11T08:20:49.560Z,15.90
2023-04-11T08:23:19.461Z,15.56
2023-04-11T08:25:46.990Z,15.01
2023-04-11T08:28:15.337Z,14.56
2023-04-11T08:30:42.834Z,14.25
2023-04-11T08:33:10.321Z,14.18
2023-04-11T08:35:38.253Z,14.23
2023-04-11T08:38:06.247Z,14.20
2023-04-11T08:40:33.882Z,14.38
2023-04-11T08:43:01.663Z,14.55
2023-04-11T08:45:29.889Z,14.77
2023-04-11T08:47:57.384Z,14.90
2023-04-11T08:50:26.401Z,14.84
2023-04-11T08:52:54.445Z,14.82
2023-04-11T08:55:22.055Z,14.81
2023-04-11T08:57:53.771Z,14.66
2023-04-11T09:00:24.288Z,14.14
2023-04-11T09:03:03.031Z,14.04
2023-04-11T09:05:32.664Z,14.08
2023-04-11T09:08:02.707Z,14.13
2023-04-11T09:10:30.502Z,14.25
2023-04-11T09:12:58.156Z,14.09
2023-04-11T09:15:30.095Z,14.17
2023-04-11T09:18:00.635Z,14.32
2023-04-11T09:20:31.443Z,14.57
2023-04-11T09:22:59.233Z,14.66
2023-04-11T09:25:27.030Z,14.64
2023-04-11T09:28:14.725Z,14.49
2023-04-11T09:30:52.807Z,14.53
2023-04-11T09:33:23.252Z,14.67
2023-04-11T09:35:54.048Z,14.63
2023-04-11T09:38:36.090Z,14.68
2023-04-11T09:41:05.009Z,14.60
2023-04-11T09:43:55.890Z,14.36
2023-04-11T09:46:25.065Z,14.30
2023-04-11T09:48:54.895Z,14.52
2023-04-11T09:53:55.136Z,14.64
2023-04-11T09:56:24.206Z,14.92
2023-04-11T09:58:53.110Z,15.22
2023-04-11T10:01:21.265Z,15.41
2023-04-11T10:03:51.204Z,15.39
2023-04-11T10:06:35.052Z,15.07
2023-04-11T10:09:11.508Z,14.83
2023-04-11T10:11:44.207Z,14.89
2023-04-11T10:14:38.094Z,14.88
2023-04-11T10:17:20.728Z,14.54
2023-04-11T10:19:56.590Z,14.39
2023-04-11T10:22:46.640Z,14.27
2023-04-11T10:25:21.875Z,14.28
2023-04-11T10:27:53.641Z,14.03
2023-04-11T10:30:39.767Z,13.93
2023-04-11T10:33:17.686Z,13.84
2023-04-11T10:36:11.009Z,13.71
2023-04-11T10:38:48.627Z,13.57
2023-04-11T10:41:34.435Z,13.73
2023-04-11T10:44:18.355Z,13.82
2023-04-11T10:46:51.670Z,13.91
2023-04-11T10:49:39.774Z,13.95
2023-04-11T10:52:22.244Z,13.95
2023-04-11T10:54:51.748Z,13.87
2023-04-11T10:57:20.264Z,13.95
2023-04-11T10:59:50.740Z,13.93
2023-04-11T11:02:20.049Z,14.01
2023-04-11T11:04:49.443Z,14.06
2023-04-11T11:07:17.545Z,14.12
2023-04-11T11:09:51.397Z,14.15
2023-04-11T11:12:19.071Z,14.13
2023-04-11T11:14:47.543Z,14.20
2023-04-11T11:17:16.741Z,14.22
2023-04-11T11:19:45.280Z,14.29
2023-04-11T11:22:25.645Z,14.40
2023-04-11T11:24:53.542Z,14.45
2023-04-11T11:27:22.900Z,14.60
2023-04-11T11:29:51.493Z,14.53
2023-04-11T11:32:30.042Z,14.47
2023-04-11T11:34:58.937Z,14.59
2023-04-11T11:37:26.349Z,14.57
2023-04-11T11:39:54.371Z,14.54
2023-04-11T11:42:22.003Z,14.61
2023-04-11T11:44:49.567Z,14.60
2023-04-11T11:47:17.124Z,14.59
2023-04-11T11:49:48.974Z,14.36
2023-04-11T11:52:37.751Z,14.03
2023-04-11T11:55:11.203Z,13.83
2023-04-11T11:57:49.925Z,13.70
2023-04-11T12:00:26.287Z,13.75
2023-04-11T12:02:55.200Z,13.82
2023-04-11T12:05:25.138Z,13.93
2023-04-11T12:07:55.094Z,14.04
2023-04-11T12:10:22.544Z,14.09
2023-04-11T12:12:53.199Z,14.13
2023-04-11T12:15:24.350Z,14.17
2023-04-11T12:17:53.545Z,14.07
2023-04-11T12:20:26.698Z,14.03
2023-04-11T12:22:55.322Z,14.11
2023-04-11T12:25:23.292Z,14.12
2023-04-11T12:27:51.016Z,14.17
2023-04-11T12:30:18.617Z,14.25
2023-04-11T12:32:46.503Z,14.33
2023-04-11T12:35:14.094Z,14.18
2023-04-11T12:37:41.800Z,14.23
2023-04-11T12:40:13.001Z,14.16
2023-04-11T12:42:53.485Z,14.19
2023-04-11T12:45:24.635Z,14.27
2023-04-11T12:47:54.055Z,14.36
2023-04-11T12:50:23.666Z,14.39
2023-04-11T12:52:51.995Z,14.49
2023-04-11T12:55:19.589Z,14.48
2023-04-11T12:57:47.188Z,14.55
2023-04-11T13:00:15.465Z,14.66
2023-04-11T13:02:45.229Z,14.69
2023-04-11T13:05:17.011Z,14.62
2023-04-11T13:07:45.554Z,14.61
2023-04-11T13:10:16.886Z,14.58
2023-04-11T13:12:45.803Z,14.48
2023-04-11T13:15:17.185Z,14.41
2023-04-11T13:17:45.013Z,14.45
2023-04-11T13:20:15.277Z,14.44
2023-04-11T13:22:43.601Z,14.46
2023-04-11T13:25:12.491Z,14.54
2023-04-11T13:27:41.500Z,14.46
2023-04-11T13:30:10.742Z,14.39
2023-04-11T13:32:39.346Z,14.32
2023-04-11T13:35:07.342Z,14.28
2023-04-11T13:37:34.997Z,14.29
2023-04-11T13:40:03.127Z,14.05
2023-04-11T13:42:31.488Z,13.98
2023-04-11T13:44:58.877Z,13.95
2023-04-11T13:47:26.662Z,13.94
2023-04-11T13:49:54.168Z,13.88
2023-04-11T13:52:22.986Z,13.88
2023-04-11T13:54:50.711Z,13.93
2023-04-11T13:57:18.165Z,13.98
2023-04-11T13:59:45.584Z,13.98
2023-04-11T14:02:13.133Z,14.01
2023-04-11T14:04:40.700Z,14.08
2023-04-11T14:07:08.340Z,13.99
2023-04-11T14:09:36.029Z,14.05
2023-04-11T14:12:03.731Z,14.14
2023-04-11T14:14:31.377Z,14.07
2023-04-11T14:16:58.898Z,14.14
2023-04-11T14:19:26.587Z,14.18
2023-04-11T14:21:54.268Z,14.30
2023-04-11T14:24:22.396Z,14.23
2023-04-11T14:26:50.428Z,14.08
2023-04-11T14:29:19.125Z,14.10
2023-04-11T14:31:47.956Z,14.09
2023-04-11T14:34:16.230Z,14.14
2023-04-11T14:36:43.891Z,14.01
2023-04-11T14:39:11.878Z,14.12
2023-04-11T14:41:39.408Z,14.14
2023-04-11T14:44:07.254Z,13.99
2023-04-11T14:46:35.706Z,13.96
2023-04-11T14:49:03.703Z,13.94
2023-04-11T14:51:31.456Z,13.98
2023-04-11T14:53:59.959Z,13.96
2023-04-11T14:56:27.801Z,14.00
2023-04-11T14:58:55.714Z,13.98
2023-04-11T15:01:23.369Z,13.95
2023-04-11T15:03:50.869Z,13.87
2023-04-11T15:06:18.797Z,13.83
2023-04-11T15:08:46.489Z,13.84
2023-04-11T15:11:14.105Z,13.72
2023-04-11T15:13:41.513Z,13.72
2023-04-11T15:16:09.006Z,13.74
2023-04-11T15:18:36.425Z,13.78
2023-04-11T15:21:04.211Z,13.68
2023-04-11T15:23:31.800Z,13.81
2023-04-11T15:26:01.166Z,13.84
2023-04-11T15:28:33.873Z,13.91
2023-04-11T15:31:02.659Z,13.89
2023-04-11T15:33:31.943Z,13.84
2023-04-11T15:36:00.743Z,13.90
2023-04-11T15:38:28.864Z,13.77
2023-04-11T15:40:59.342Z,13.82
2023-04-11T15:43:27.594Z,13.85
2023-04-11T15:45:55.054Z,13.88
2023-04-11T15:48:22.554Z,13.79
2023-04-11T15:50:50.960Z,13.73
2023-04-11T15:53:18.614Z,13.64
2023-04-11T15:55:47.762Z,13.68
2023-04-11T15:58:15.720Z,13.70
2023-04-11T16:00:43.955Z,13.51
2023-04-11T16:03:11.816Z,13.43
2023-04-11T16:05:43.313Z,13.39
2023-04-11T16:08:11.137Z,13.43
2023-04-11T16:10:38.729Z,13.46
2023-04-11T16:13:06.243Z,13.42
2023-04-11T16:15:33.713Z,13.41
2023-04-11T16:18:01.376Z,13.39
2023-04-11T16:20:28.952Z,13.53
2023-04-11T16:22:56.479Z,13.42
2023-04-11T16:25:24.002Z,13.28
2023-04-11T16:27:51.618Z,13.43
2023-04-11T16:30:19.333Z,13.51
2023-04-11T16:32:47.056Z,13.48
2023-04-11T16:35:14.503Z,13.34
2023-04-11T16:37:42.099Z,13.47
2023-04-11T16:40:12.662Z,13.48
2023-04-11T16:42:40.591Z,13.48
2023-04-11T16:45:12.226Z,13.25
2023-04-11T16:47:39.831Z,13.31
2023-04-11T16:50:07.790Z,13.34
2023-04-11T16:52:35.207Z,13.30
2023-04-11T16:55:03.574Z,13.15
2023-04-11T16:57:33.412Z,13.17
2023-04-11T17:00:06.387Z,13.05
2023-04-11T17:02:34.062Z,12.93
2023-04-11T17:05:01.608Z,12.76
2023-04-11T17:07:29.406Z,12.67
2023-04-11T17:09:57.051Z,12.67
2023-04-11T17:12:24.750Z,12.71
2023-04-11T17:14:52.786Z,12.65
2023-04-11T17:17:21.475Z,12.37
2023-04-11T17:19:49.022Z,12.44
2023-04-11T17:22:16.639Z,12.37
2023-04-11T17:24:44.026Z,12.39
2023-04-11T17:27:11.489Z,12.24
2023-04-11T17:29:39.024Z,12.27
2023-04-11T17:32:06.457Z,12.23
2023-04-11T17:34:34.080Z,12.22
2023-04-11T17:37:02.252Z,12.32
2023-04-11T17:39:29.683Z,12.27
2023-04-11T17:41:57.622Z,12.24
2023-04-11T17:44:25.117Z,12.22
2023-04-11T17:46:54.416Z,12.30
2023-04-11T17:49:22.502Z,12.15
2023-04-11T17:51:59.092Z,12.22
2023-04-11T17:54:27.761Z,12.21
2023-04-11T17:56:56.452Z,12.11
2023-04-11T17:59:25.590Z,12.05
2023-04-11T18:01:59.559Z,11.93
2023-04-11T18:04:27.288Z,11.97
2023-04-11T18:06:55.097Z,11.89
2023-04-11T18:09:26.702Z,11.94
2023-04-11T18:11:54.282Z,11.88
2023-04-11T18:14:21.700Z,11.88
2023-04-11T18:16:49.285Z,11.90
2023-04-11T18:19:16.875Z,11.85
2023-04-11T18:21:44.377Z,11.86
2023-04-11T18:24:11.802Z,11.90
2023-04-11T18:26:39.202Z,11.84
2023-04-11T18:29:06.859Z,11.76
2023-04-11T18:31:35.291Z,11.76
2023-04-11T18:34:03.792Z,11.70
2023-04-11T18:36:32.732Z,11.70
2023-04-11T18:39:00.314Z,11.72
2023-04-11T18:41:27.872Z,11.71
2023-04-11T18:43:55.484Z,11.78
2023-04-11T18:46:23.481Z,11.73
2023-04-11T18:48:51.013Z,11.72
2023-04-11T18:51:19.698Z,11.72
2023-04-11T18:53:49.025Z,11.73
2023-04-11T18:56:16.774Z,11.62
2023-04-11T18:58:46.575Z,11.60
2023-04-11T19:01:17.289Z,11.58
2023-04-11T19:03:45.919Z,11.67
2023-04-11T19:06:13.975Z,11.83
2023-04-11T19:08:41.742Z,11.73
2023-04-11T19:11:09.178Z,11.63
2023-04-11T19:13:36.422Z,11.71
2023-04-11T19:16:03.963Z,11.75
2023-04-11T19:18:31.476Z,11.73
2023-04-11T19:20:59.118Z,11.70
2023-04-11T19:23:26.703Z,11.85
2023-04-11T19:25:54.952Z,11.62
2023-04-11T19:28:22.396Z,11.61
2023-04-11T19:30:49.956Z,11.71
2023-04-11T19:33:17.928Z,11.72
2023-04-11T19:35:45.459Z,11.76
2023-04-11T19:38:12.896Z,11.63
2023-04-11T19:40:40.357Z,11.59
2023-04-11T19:43:07.802Z,11.62
2023-04-11T19:45:35.297Z,11.68
2023-04-11T19:48:02.910Z,11.66
2023-04-11T19:50:30.928Z,11.70
2023-04-11T19:52:58.525Z,11.72
2023-04-11T19:55:27.431Z,11.69
2023-04-11T19:57:54.975Z,11.69
2023-04-11T20:00:22.761Z,11.75
2023-04-11T20:02:50.557Z,11.79
2023-04-11T20:05:20.012Z,11.76
2023-04-11T20:07:48.273Z,11.89
2023-04-11T20:10:16.505Z,11.80
2023-04-11T20:12:43.968Z,11.82
2023-04-11T20:15:11.924Z,11.87
2023-04-11T20:17:42.753Z,11.98
2023-04-11T20:20:12.706Z,11.99
2023-04-11T20:22:40.553Z,12.00
2023-04-11T20:25:08.396Z,12.03
2023-04-11T20:27:36.411Z,12.01
2023-04-11T20:30:07.095Z,11.91
2023-04-11T20:32:34.751Z,11.97
2023-04-11T20:35:02.410Z,12.08
2023-04-11T20:37:31.101Z,12.02
2023-04-11T20:39:58.769Z,12.10
2023-04-11T20:42:28.259Z,12.23
2023-04-11T20:45:08.304Z,12.24
2023-04-11T20:47:37.654Z,12.12
2023-04-11T20:50:07.478Z,12.15
2023-04-11T20:52:35.611Z,12.16
2023-04-11T20:55:04.149Z,12.24
2023-04-11T20:57:31.625Z,12.23
2023-04-11T20:59:59.391Z,12.18
2023-04-11T21:02:28.081Z,12.29
2023-04-11T21:04:55.953Z,12.27
2023-04-11T21:07:23.646Z,12.27
2023-04-11T21:09:51.971Z,12.17
2023-04-11T21:12:19.533Z,12.29
2023-04-11T21:14:47.008Z,12.24
2023-04-11T21:17:14.569Z,12.32
2023-04-11T21:19:42.112Z,12.41
2023-04-11T21:22:09.570Z,12.41
2023-04-11T21:24:36.989Z,12.38
2023-04-11T21:27:04.666Z,12.37
2023-04-11T21:29:32.072Z,12.31
2023-04-11T21:31:59.698Z,12.35
2023-04-11T21:34:27.275Z,12.31
2023-04-11T21:36:55.140Z,12.43
2023-04-11T21:39:22.648Z,12.41
2023-04-11T21:41:50.293Z,12.43
2023-04-11T21:44:17.861Z,12.34
2023-04-11T21:46:45.522Z,12.35
2023-04-11T21:49:13.009Z,12.41
2023-04-11T21:51:40.617Z,12.40
2023-04-11T21:54:08.084Z,12.43
2023-04-11T21:56:35.651Z,12.50
2023-04-11T21:59:03.010Z,12.53
2023-04-11T22:01:30.463Z,12.48
2023-04-11T22:03:59.436Z,12.43
2023-04-11T22:06:30.397Z,12.41
2023-04-11T22:08:58.386Z,12.50
2023-04-11T22:11:26.033Z,12.36
2023-04-11T22:13:53.560Z,12.25
2023-04-11T22:16:26.505Z,12.44
2023-04-11T22:18:54.508Z,12.46
2023-04-11T22:21:21.964Z,12.44
2023-04-11T22:23:57.882Z,12.37
2023-04-11T22:26:34.316Z,12.42
2023-04-11T22:29:05.796Z,12.42
2023-04-11T22:31:34.930Z,12.47
2023-04-11T22:34:02.892Z,12.38
2023-04-11T22:36:35.692Z,12.41
2023-04-11T22:39:07.288Z,12.48
2023-04-11T22:41:38.768Z,12.47
2023-04-11T22:44:07.037Z,12.43
2023-04-11T22:46:39.420Z,12.38
2023-04-11T22:49:09.716Z,12.43
2023-04-11T22:51:38.189Z,12.44
2023-04-11T22:54:05.826Z,12.42
2023-04-11T22:56:33.261Z,12.52
2023-04-11T22:59:01.086Z,12.48
2023-04-11T23:01:28.608Z,12.52
2023-04-11T23:03:56.520Z,12.58
2023-04-11T23:06:24.241Z,12.56
2023-04-11T23:08:54.091Z,12.54
2023-04-11T23:11:21.660Z,12.54
2023-04-11T23:13:52.817Z,12.36
2023-04-11T23:16:22.338Z,12.26
2023-04-11T23:18:49.746Z,12.12
2023-04-11T23:21:17.242Z,12.04
2023-04-11T23:23:45.375Z,11.96
2023-04-11T23:26:20.691Z,11.79
2023-04-11T23:28:48.876Z,11.74
2023-04-11T23:31:17.826Z,11.72
2023-04-11T23:33:45.428Z,11.56
2023-04-11T23:36:13.822Z,11.46
2023-04-11T23:38:42.232Z,11.35
2023-04-11T23:41:10.627Z,11.40
2023-04-11T23:43:38.133Z,11.25
2023-04-11T23:46:05.843Z,11.18
2023-04-11T23:48:33.341Z,11.14
2023-04-11T23:51:01.474Z,11.04
2023-04-11T23:53:29.303Z,11.07
2023-04-11T23:55:57.233Z,10.99
2023-04-11T23:58:24.859Z,11.01
